Time;durP1;ratioP1;P1;durP2;ratioP2;P2;SDS_P1;SDS_P2;PMS_P1;PMS_P2;Temp;Humidity;BMP_temperature;BMP_pressure;BME280_temperature;BME280_humidity;BME280_pressure;Samples;Min_cycle;Max_cycle;Signal;HPM_P1;HPM_P2
2022/07/20 00:02:15;;;;;;;1.62;1.52;;;;;;;13.76;64.24;96250.00;1642946;87;21512;-64
2022/07/20 00:04:42;;;;;;;4.47;1.90;;;;;;;13.72;63.85;96253.15;1625832;88;21106;-64
2022/07/20 00:07:09;;;;;;;3.20;2.00;;;;;;;13.72;63.79;96242.54;1640163;87;21082;-64
2022/07/20 00:12:20;;;;;;;4.50;1.87;;;;;;;13.66;63.79;96247.98;1640156;87;21018;-64
2022/07/20 00:14:47;;;;;;;2.65;1.87;;;;;;;13.69;63.16;96236.44;1640403;87;21015;-64
2022/07/20 00:17:14;;;;;;;4.03;1.90;;;;;;;13.61;63.20;96236.59;1642968;87;21086;-64
2022/07/20 00:19:41;;;;;;;1.85;1.60;;;;;;;13.53;64.87;96244.70;1626028;88;21002;-64
2022/07/20 00:22:07;;;;;;;3.22;2.20;;;;;;;13.44;65.71;96250.64;1640176;87;21038;-64
2022/07/20 00:24:34;;;;;;;5.47;1.62;;;;;;;13.40;65.37;96245.37;1642649;87;21570;-64
2022/07/20 00:27:01;;;;;;;3.15;1.87;;;;;;;13.37;64.97;96242.78;1640249;87;21449;-64
2022/07/20 00:29:28;;;;;;;2.70;1.90;;;;;;;13.37;65.33;96236.16;1640001;87;21087;-65
2022/07/20 00:31:54;;;;;;;3.33;1.53;;;;;;;13.44;64.79;96237.38;1642773;87;21062;-64
2022/07/20 00:34:21;;;;;;;2.17;1.70;;;;;;;13.46;65.03;96230.28;1640229;87;21030;-64
2022/07/20 00:36:48;;;;;;;3.17;1.83;;;;;;;13.46;65.25;96228.49;1640186;87;21018;-64
2022/07/20 00:39:14;;;;;;;4.90;2.17;;;;;;;13.50;65.70;96229.30;1642611;87;21584;-64
2022/07/20 00:41:42;;;;;;;3.90;1.50;;;;;;;13.48;65.60;96231.99;1640337;87;20991;-64
2022/07/20 00:44:11;;;;;;;2.35;1.57;;;;;;;13.46;65.58;96224.97;1640134;87;21537;-64
2022/07/20 00:46:41;;;;;;;3.02;1.60;;;;;;;13.40;66.04;96230.79;1642767;87;21041;-64
2022/07/20 00:49:10;;;;;;;2.30;1.65;;;;;;;13.37;65.46;96232.64;1639634;87;21023;-64
2022/07/20 00:51:40;;;;;;;1.70;1.60;;;;;;;13.40;65.03;96233.44;1640167;87;21010;-64
2022/07/20 00:54:09;;;;;;;3.57;1.97;;;;;;;13.52;65.07;96230.14;1642951;87;21006;-64
2022/07/20 00:56:37;;;;;;;3.77;1.80;;;;;;;13.61;64.59;96233.95;1640148;87;21089;-64
2022/07/20 00:59:07;;;;;;;3.87;1.70;;;;;;;13.47;65.36;96238.18;1640047;87;21563;-64
2022/07/20 01:01:34;;;;;;;2.22;1.82;;;;;;;13.40;65.77;96240.52;1642808;87;21588;-64
2022/07/20 01:04:01;;;;;;;2.02;1.80;;;;;;;13.35;66.06;96240.61;1625851;88;21049;-64
2022/07/20 01:06:29;;;;;;;3.15;1.60;;;;;;;13.29;66.21;96234.57;1639731;87;21573;-64
2022/07/20 01:08:56;;;;;;;4.78;1.90;;;;;;;13.28;65.94;96243.41;1642896;87;21042;-64
2022/07/20 01:11:23;;;;;;;3.15;1.70;;;;;;;13.29;65.60;96246.03;1625727;88;21073;-64
2022/07/20 01:13:50;;;;;;;4.23;2.40;;;;;;;13.32;65.94;96241.13;1640120;87;21023;-64
2022/07/20 01:16:17;;;;;;;1.85;1.50;;;;;;;13.34;65.61;96247.28;1642934;87;21017;-64
2022/07/20 01:18:44;;;;;;;3.07;1.70;;;;;;;13.34;65.47;96247.28;1640020;87;21058;-64
2022/07/20 01:21:11;;;;;;;3.10;1.60;;;;;;;13.25;65.13;96245.63;1639976;87;21061;-64
2022/07/20 01:23:37;;;;;;;3.20;1.80;;;;;;;13.19;65.65;96247.08;1643022;87;21046;-64
2022/07/20 01:26:04;;;;;;;3.53;2.00;;;;;;;13.15;67.03;96249.34;1639758;87;21066;-65
2022/07/20 01:28:31;;;;;;;4.47;2.12;;;;;;;13.11;66.59;96245.03;1639845;87;21047;-65
2022/07/20 01:30:58;;;;;;;2.27;1.70;;;;;;;13.08;66.26;96247.28;1643007;87;21026;-65
2022/07/20 01:33:25;;;;;;;2.22;1.60;;;;;;;13.02;67.66;96245.18;1625737;88;21551;-64
2022/07/20 01:35:52;;;;;;;3.47;1.75;;;;;;;12.96;67.27;96240.88;1640061;87;21501;-64
2022/07/20 01:38:19;;;;;;;3.57;1.67;;;;;;;12.90;67.58;96248.48;1642660;87;21042;-64
2022/07/20 01:40:45;;;;;;;2.80;1.93;;;;;;;12.79;67.35;96250.42;1640045;87;21010;-64
2022/07/20 01:43:12;;;;;;;3.67;1.87;;;;;;;12.68;68.11;96249.74;1639862;87;21062;-65
2022/07/20 01:45:39;;;;;;;3.10;1.70;;;;;;;12.64;67.55;96245.38;1642866;87;21572;-65
2022/07/20 01:48:07;;;;;;;2.47;1.80;;;;;;;12.60;68.79;96243.67;1640178;87;21042;-65
2022/07/20 01:50:34;;;;;;;3.90;1.97;;;;;;;12.63;68.49;96246.30;1635230;87;21054;-65
2022/07/20 01:53:01;;;;;;;2.53;1.80;;;;;;;12.60;68.67;96247.22;1637652;87;21050;-64
2022/07/20 01:55:28;;;;;;;2.63;1.90;;;;;;;12.56;68.97;96241.53;1620155;89;21050;-65
2022/07/20 01:57:55;;;;;;;1.90;1.70;;;;;;;12.55;68.74;96246.42;1635188;87;21079;-64
2022/07/20 02:00:22;;;;;;;4.10;2.00;;;;;;;12.45;69.16;96250.98;1637412;88;21058;-65
2022/07/20 02:02:49;;;;;;;2.67;1.50;;;;;;;12.42;68.30;96247.03;1634801;88;21586;-64
2022/07/20 02:05:18;;;;;;;2.57;1.63;;;;;;;12.47;68.02;96253.16;1635175;88;21070;-64
2022/07/20 02:07:45;;;;;;;1.93;1.70;;;;;;;12.52;68.10;96243.37;1637764;88;21042;-65
2022/07/20 02:10:15;;;;;;;1.80;1.70;;;;;;;12.53;68.53;96245.56;1634658;88;21170;-64
2022/07/20 02:12:41;;;;;;;18.50;3.73;;;;;;;12.51;68.98;96244.70;1635186;87;21536;-65
2022/07/20 02:15:12;;;;;;;3.03;1.60;;;;;;;12.55;68.34;96245.09;1637449;88;21054;-64
2022/07/20 02:17:40;;;;;;;8.00;1.90;;;;;;;12.58;68.53;96242.84;1616983;88;21485;-65
2022/07/20 02:20:09;;;;;;;2.80;1.70;;;;;;;12.61;68.03;96241.47;1635259;87;21087;-64
2022/07/20 02:22:35;;;;;;;1.70;1.60;;;;;;;12.61;67.81;96238.36;1637733;88;21473;-64
2022/07/20 02:25:02;;;;;;;2.43;1.90;;;;;;;12.59;68.04;96231.34;1634668;88;21063;-64
2022/07/20 02:27:29;;;;;;;4.10;1.70;;;;;;;12.56;68.60;96235.78;1635081;88;21019;-64
2022/07/20 02:29:55;;;;;;;5.13;1.83;;;;;;;12.63;68.97;96237.89;1637733;87;21047;-64
2022/07/20 02:32:22;;;;;;;2.20;1.70;;;;;;;12.69;68.49;96238.23;1620676;88;21039;-64
2022/07/20 02:34:49;;;;;;;2.20;1.90;;;;;;;12.66;68.66;96240.94;1635208;87;21042;-65
2022/07/20 02:37:15;;;;;;;2.20;2.00;;;;;;;12.67;68.73;96238.70;1637757;87;21091;-64
2022/07/20 02:39:42;;;;;;;2.17;1.67;;;;;;;12.59;69.15;96244.58;1609272;88;21031;-65
2022/07/20 02:42:09;;;;;;;4.50;1.87;;;;;;;12.51;68.99;96242.06;1635214;87;21050;-64
2022/07/20 02:44:36;;;;;;;2.80;1.50;;;;;;;12.48;68.63;96250.05;1637681;87;21059;-65
2022/07/20 02:47:02;;;;;;;3.73;1.60;;;;;;;12.52;68.77;96243.80;1635187;87;21042;-64
2022/07/20 02:49:29;;;;;;;1.93;1.70;;;;;;;12.51;68.51;96248.67;1636177;87;21042;-65
2022/07/20 02:51:55;;;;;;;3.03;1.90;;;;;;;12.35;68.54;96248.05;1644965;87;21033;-64
2022/07/20 02:54:23;;;;;;;1.90;1.80;;;;;;;12.27;68.29;96248.16;1637846;88;21038;-65
2022/07/20 02:56:50;;;;;;;2.80;1.70;;;;;;;12.28;69.28;96246.39;1637337;88;21062;-64
2022/07/20 02:59:17;;;;;;;2.47;2.20;;;;;;;12.28;69.36;96249.03;1644864;87;20990;-64
2022/07/20 03:01:43;;;;;;;2.40;1.87;;;;;;;12.32;70.04;96251.61;1637700;88;21074;-65
2022/07/20 03:04:10;;;;;;;3.30;1.60;;;;;;;12.30;69.05;96252.08;1637932;88;21014;-65
2022/07/20 03:06:37;;;;;;;3.83;2.20;;;;;;;12.26;69.28;96246.85;1644806;87;21101;-65
2022/07/20 03:09:04;;;;;;;7.53;2.23;;;;;;;12.20;69.83;96247.82;1637588;88;21058;-64
2022/07/20 03:11:31;;;;;;;2.97;1.93;;;;;;;12.21;70.49;96248.69;1637358;88;21058;-65
2022/07/20 03:13:57;;;;;;;2.93;2.00;;;;;;;12.20;70.40;96248.28;1644932;87;21129;-64
2022/07/20 03:16:24;;;;;;;3.30;3.00;;;;;;;12.20;70.31;96249.59;1637846;88;21548;-64
2022/07/20 03:18:51;;;;;;;3.07;2.63;;;;;;;12.19;70.26;96250.47;1637950;88;21039;-65
2022/07/20 03:21:18;;;;;;;4.70;2.07;;;;;;;12.23;70.76;96261.45;1645025;87;21036;-64
2022/07/20 03:23:44;;;;;;;3.83;1.80;;;;;;;12.22;70.62;96263.23;1637873;87;21081;-64
2022/07/20 03:26:11;;;;;;;1.77;1.60;;;;;;;12.23;70.11;96256.16;1637420;88;21098;-65
2022/07/20 03:28:38;;;;;;;4.47;2.07;;;;;;;12.21;70.99;96263.23;1644878;87;21042;-65
2022/07/20 03:31:05;;;;;;;2.53;2.20;;;;;;;12.28;71.27;96259.61;1638012;88;21128;-64
2022/07/20 03:33:32;;;;;;;4.73;2.30;;;;;;;12.36;70.43;96263.02;1638047;88;21046;-64
2022/07/20 03:35:58;;;;;;;3.77;2.37;;;;;;;12.43;70.21;96259.38;1645098;87;21057;-65
2022/07/20 03:38:25;;;;;;;2.13;1.93;;;;;;;12.50;70.07;96260.17;1637830;87;21059;-64
2022/07/20 03:40:52;;;;;;;3.77;1.93;;;;;;;12.51;70.36;96262.78;1637890;87;21074;-65
2022/07/20 03:43:18;;;;;;;2.97;2.00;;;;;;;12.55;70.83;96261.84;1644867;87;21089;-65
2022/07/20 03:45:45;;;;;;;7.53;2.57;;;;;;;12.63;70.84;96264.83;1637964;88;21062;-65
2022/07/20 03:48:12;;;;;;;1.90;1.80;;;;;;;12.77;70.43;96262.81;1637889;87;21007;-65
2022/07/20 03:50:39;;;;;;;4.10;2.17;;;;;;;12.86;70.24;96257.83;1639473;87;21031;-65
2022/07/20 03:53:05;;;;;;;2.47;1.93;;;;;;;12.91;69.96;96261.27;1635258;88;21553;-65
2022/07/20 03:55:32;;;;;;;2.33;1.63;;;;;;;12.95;69.72;96259.88;1635011;87;21078;-65
2022/07/20 03:57:58;;;;;;;4.07;1.70;;;;;;;12.99;70.41;96257.58;1637896;88;21529;-65
2022/07/20 04:00:25;;;;;;;5.17;2.10;;;;;;;13.13;70.26;96256.48;1635339;88;21469;-65
2022/07/20 04:02:52;;;;;;;4.80;2.00;;;;;;;13.30;69.85;96257.50;1634997;88;21114;-65
2022/07/20 04:05:19;;;;;;;2.67;2.10;;;;;;;13.41;69.28;96260.39;1637591;88;21113;-65
2022/07/20 04:07:46;;;;;;;4.70;2.02;;;;;;;13.59;68.55;96255.17;1635251;88;21038;-65
2022/07/20 04:10:13;;;;;;;4.47;1.87;;;;;;;13.76;68.10;96256.17;1634803;87;21509;-65
2022/07/20 04:12:40;;;;;;;2.10;1.90;;;;;;;13.94;66.94;96258.89;1637797;88;21109;-65
2022/07/20 04:15:09;;;;;;;3.25;2.08;;;;;;;14.07;66.41;96257.71;1635266;87;21038;-65
2022/07/20 04:17:35;;;;;;;3.85;1.85;;;;;;;14.14;66.27;96258.92;1635091;87;21030;-65
2022/07/20 04:20:04;;;;;;;2.33;2.10;;;;;;;14.24;66.81;96248.52;1637878;88;21042;-65
2022/07/20 04:22:31;;;;;;;5.75;2.30;;;;;;;14.28;66.00;96251.51;1620645;88;21513;-65
2022/07/20 04:24:58;;;;;;;5.17;2.30;;;;;;;14.30;65.66;96248.37;1635253;88;21082;-65
2022/07/20 04:27:24;;;;;;;3.25;1.95;;;;;;;14.37;65.27;96246.00;1637695;88;21022;-65
2022/07/20 04:29:51;;;;;;;4.87;1.90;;;;;;;14.47;65.06;96244.01;1620733;88;21036;-65
2022/07/20 04:32:17;;;;;;;4.37;2.00;;;;;;;14.60;64.47;96246.81;1635261;88;21038;-65
2022/07/20 04:34:44;;;;;;;2.90;1.80;;;;;;;14.71;64.42;96247.88;1637564;88;21118;-65
2022/07/20 04:37:12;;;;;;;2.47;1.77;;;;;;;14.82;64.47;96249.83;1635006;88;21589;-65
2022/07/20 04:39:40;;;;;;;4.50;2.10;;;;;;;14.95;64.06;96256.17;1635024;88;21786;-65
2022/07/20 04:42:07;;;;;;;3.00;2.00;;;;;;;15.05;64.34;96252.36;1637678;87;21078;-65
2022/07/20 04:44:33;;;;;;;5.83;2.50;;;;;;;15.14;63.29;96251.67;1635324;87;21043;-65
2022/07/20 04:47:00;;;;;;;3.42;2.10;;;;;;;15.27;63.18;96257.55;1635249;88;21031;-65
2022/07/20 04:49:26;;;;;;;4.95;2.17;;;;;;;15.35;63.16;96257.34;1637783;87;21066;-65
2022/07/20 04:51:53;;;;;;;4.47;2.00;;;;;;;15.46;63.56;96256.58;1649869;87;21040;-65
2022/07/20 04:54:21;;;;;;;4.95;2.20;;;;;;;15.57;64.09;96257.60;1650020;87;21080;-65
2022/07/20 04:56:48;;;;;;;4.87;2.15;;;;;;;15.69;63.51;96253.31;1649896;87;21040;-65
2022/07/20 04:59:15;;;;;;;4.17;2.60;;;;;;;15.82;63.25;96249.84;1649896;87;21063;-64
2022/07/20 05:01:42;;;;;;;5.37;2.50;;;;;;;15.97;62.78;96249.86;1649902;87;21048;-65
2022/07/20 05:04:09;;;;;;;5.92;2.30;;;;;;;16.09;62.40;96248.63;1650009;87;21004;-65
2022/07/20 05:06:35;;;;;;;6.33;2.10;;;;;;;16.20;62.18;96247.83;1649837;87;21104;-65
2022/07/20 05:09:03;;;;;;;9.13;2.30;;;;;;;16.32;61.59;96253.26;1649816;87;21024;-65
2022/07/20 05:11:30;;;;;;;7.22;2.40;;;;;;;16.43;61.72;96252.48;1650056;87;21024;-65
2022/07/20 05:13:57;;;;;;;5.65;1.98;;;;;;;16.58;61.67;96253.77;1649827;87;21079;-65
2022/07/20 05:16:24;;;;;;;6.28;2.40;;;;;;;16.72;61.42;96251.55;1649787;87;21013;-65
2022/07/20 05:18:51;;;;;;;4.05;2.52;;;;;;;16.87;60.96;96255.54;1649934;87;21043;-65
2022/07/20 05:21:17;;;;;;;10.13;2.60;;;;;;;17.02;60.59;96246.17;1649682;87;21036;-65
2022/07/20 05:23:44;;;;;;;6.22;2.20;;;;;;;17.15;60.07;96250.16;1649768;87;21056;-65
2022/07/20 05:26:11;;;;;;;5.95;2.37;;;;;;;17.28;59.82;96255.47;1649647;87;21091;-65
2022/07/20 05:28:41;;;;;;;3.80;2.02;;;;;;;17.42;59.55;96254.14;1649925;87;21068;-65
2022/07/20 05:31:09;;;;;;;5.60;2.12;;;;;;;17.58;59.51;96256.66;1648598;87;21544;-65
2022/07/20 05:33:37;;;;;;;4.80;2.00;;;;;;;17.73;59.45;96253.44;1649310;87;21042;-64
2022/07/20 05:36:05;;;;;;;8.55;2.05;;;;;;;17.86;59.16;96251.69;1650232;87;21120;-65
2022/07/20 05:38:32;;;;;;;4.67;2.22;;;;;;;18.00;58.93;96248.05;1623881;87;21498;-65
2022/07/20 05:40:59;;;;;;;7.00;2.45;;;;;;;18.33;58.10;96246.37;1649468;87;21068;-64
2022/07/20 05:43:26;;;;;;;5.12;2.17;;;;;;;18.52;57.82;96247.84;1649915;87;21076;-64
2022/07/20 05:45:53;;;;;;;5.83;2.00;;;;;;;18.52;57.82;96247.84;1649931;87;21071;-64
2022/07/20 05:48:19;;;;;;;8.15;2.52;;;;;;;18.68;57.22;96249.45;1649896;87;21056;-65
2022/07/20 05:50:47;;;;;;;9.60;2.47;;;;;;;18.83;57.21;96248.87;1645277;87;21058;-65
2022/07/20 05:53:14;;;;;;;9.23;2.30;;;;;;;18.98;56.87;96240.69;1639990;87;21019;-64
2022/07/20 05:55:41;;;;;;;5.00;1.90;;;;;;;19.14;56.51;96248.93;1642781;87;21548;-64
2022/07/20 05:58:09;;;;;;;11.95;2.52;;;;;;;19.27;54.92;96239.45;1639893;87;21054;-64
2022/07/20 06:00:37;;;;;;;8.13;2.27;;;;;;;19.43;53.82;96239.67;1639776;87;21030;-64
2022/07/20 06:03:05;;;;;;;14.45;2.37;;;;;;;19.59;54.43;96234.05;1642916;87;21015;-64
2022/07/20 06:05:32;;;;;;;12.53;2.72;;;;;;;19.81;53.98;96237.16;1640035;87;21110;-64
2022/07/20 06:08:01;;;;;;;4.92;2.22;;;;;;;19.98;53.94;96237.27;1640064;87;21098;-65
2022/07/20 06:10:32;;;;;;;9.33;2.40;;;;;;;20.18;53.85;96242.16;1642722;87;21011;-65
2022/07/20 06:13:00;;;;;;;8.68;2.17;;;;;;;20.36;53.61;96238.64;1639836;87;21062;-64
2022/07/20 06:15:27;;;;;;;8.50;2.22;;;;;;;20.54;53.26;96238.23;1639991;87;21085;-65
2022/07/20 06:17:55;;;;;;;18.12;2.77;;;;;;;20.69;50.48;96234.84;1642881;87;21528;-65
2022/07/20 06:20:23;;;;;;;10.98;2.70;;;;;;;20.86;51.64;96230.45;1640270;87;21050;-65
2022/07/20 06:22:51;;;;;;;15.53;2.72;;;;;;;21.02;51.61;96232.80;1639993;87;21501;-64
2022/07/20 06:25:18;;;;;;;15.43;2.83;;;;;;;21.21;51.54;96233.20;1642831;87;21083;-65
2022/07/20 06:27:45;;;;;;;16.73;2.50;;;;;;;21.39;51.17;96233.63;1613897;87;21057;-65
2022/07/20 06:30:13;;;;;;;14.40;2.98;;;;;;;21.57;51.12;96229.13;1639953;87;21049;-65
2022/07/20 06:32:41;;;;;;;9.93;2.72;;;;;;;21.75;50.77;96228.66;1642877;87;21030;-65
2022/07/20 06:35:08;;;;;;;15.53;2.40;;;;;;;21.94;49.77;96229.41;1639925;87;21521;-65
2022/07/20 06:37:38;;;;;;;14.10;2.83;;;;;;;22.12;49.67;96222.16;1614162;87;21062;-65
2022/07/20 06:40:07;;;;;;;12.95;2.20;;;;;;;22.29;49.57;96233.38;1642805;87;21101;-65
2022/07/20 06:42:34;;;;;;;13.62;2.37;;;;;;;22.46;48.56;96235.14;1640013;87;21541;-65
2022/07/20 06:45:02;;;;;;;7.33;1.80;;;;;;;22.65;48.54;96232.28;1639955;87;21038;-65
2022/07/20 06:47:28;;;;;;;8.20;2.05;;;;;;;22.85;48.34;96236.05;1643020;87;21019;-65
2022/07/20 06:49:55;;;;;;;21.00;2.58;;;;;;;23.04;47.95;96231.01;1614185;87;20999;-65
2022/07/20 06:52:22;;;;;;;16.85;2.40;;;;;;;23.23;47.80;96235.69;1639626;86;21132;-65
2022/07/20 06:54:48;;;;;;;9.70;2.37;;;;;;;23.43;47.54;96228.27;1642872;87;21062;-65
2022/07/20 06:57:15;;;;;;;13.93;2.85;;;;;;;23.63;45.87;96220.33;1639813;87;21058;-65
2022/07/20 06:59:42;;;;;;;8.48;2.20;;;;;;;23.81;43.77;96221.07;1640062;87;21518;-65
2022/07/20 07:02:09;;;;;;;11.03;2.33;;;;;;;24.00;43.54;96223.03;1642576;87;21078;-65
2022/07/20 07:04:36;;;;;;;5.55;2.20;;;;;;;24.20;41.61;96220.44;1625824;88;21034;-65
2022/07/20 07:07:03;;;;;;;3.45;2.33;;;;;;;24.35;40.49;96218.13;1640028;87;21101;-65
2022/07/20 07:09:30;;;;;;;6.25;2.67;;;;;;;24.51;39.27;96222.56;1642751;87;21019;-65
2022/07/20 07:11:57;;;;;;;2.65;1.98;;;;;;;24.61;39.13;96215.13;1639520;87;21565;-65
2022/07/20 07:14:25;;;;;;;6.65;2.22;;;;;;;24.70;38.17;96208.28;1639912;87;21062;-65
2022/07/20 07:16:53;;;;;;;10.03;2.62;;;;;;;24.85;37.16;96211.81;1642624;87;21565;-65
2022/07/20 07:19:21;;;;;;;6.83;2.22;;;;;;;24.99;37.76;96202.30;1639923;87;21042;-65
2022/07/20 07:21:47;;;;;;;4.78;2.20;;;;;;;25.17;37.79;96211.53;1639782;87;21014;-65
2022/07/20 07:24:15;;;;;;;3.55;1.92;;;;;;;25.29;36.79;96195.85;1642658;87;21112;-65
2022/07/20 07:26:42;;;;;;;4.17;2.02;;;;;;;25.45;36.51;96199.27;1639599;87;21070;-64
2022/07/20 07:29:09;;;;;;;3.98;2.10;;;;;;;25.58;36.45;96197.94;1639824;87;21544;-65
2022/07/20 07:31:36;;;;;;;5.47;2.70;;;;;;;25.77;36.77;96198.00;1642744;87;21085;-64
2022/07/20 07:34:03;;;;;;;2.87;2.55;;;;;;;25.88;34.33;96195.47;1639898;87;21042;-65
2022/07/20 07:36:31;;;;;;;4.12;2.80;;;;;;;25.97;34.87;96193.44;1639953;87;21022;-65
2022/07/20 07:38:59;;;;;;;4.03;2.58;;;;;;;26.09;33.54;96189.02;1642762;87;21003;-65
2022/07/20 07:41:25;;;;;;;9.68;2.80;;;;;;;26.23;34.18;96193.42;1639865;87;21046;-64
2022/07/20 07:43:52;;;;;;;5.70;2.65;;;;;;;26.36;33.34;96194.30;1640077;87;21023;-65
2022/07/20 07:46:19;;;;;;;3.52;2.77;;;;;;;26.46;32.75;96190.41;1642726;87;21117;-64
2022/07/20 07:48:45;;;;;;;3.50;2.52;;;;;;;26.61;33.64;96181.23;1625592;88;21062;-65
2022/07/20 07:51:12;;;;;;;4.87;3.60;;;;;;;26.79;33.68;96183.08;1639053;86;21054;-65
2022/07/20 07:53:39;;;;;;;5.65;3.27;;;;;;;26.90;32.70;96181.77;1644541;87;21058;-65
2022/07/20 07:56:06;;;;;;;4.85;3.15;;;;;;;27.02;32.49;96183.21;1617433;88;21034;-65
2022/07/20 07:58:32;;;;;;;13.28;3.27;;;;;;;27.04;31.60;96187.53;1637404;88;21078;-65
2022/07/20 08:00:59;;;;;;;5.62;3.80;;;;;;;27.11;32.35;96186.56;1644874;87;21102;-65
2022/07/20 08:03:26;;;;;;;5.30;3.05;;;;;;;27.19;30.38;96185.05;1637533;88;21544;-65
2022/07/20 08:05:52;;;;;;;5.33;3.50;;;;;;;27.25;31.01;96182.36;1638107;87;21523;-65
2022/07/20 08:08:19;;;;;;;5.37;3.25;;;;;;;27.29;31.21;96185.69;1645229;87;21027;-65
2022/07/20 08:10:46;;;;;;;3.20;2.80;;;;;;;27.42;31.05;96179.73;1637824;88;21059;-65
2022/07/20 08:13:13;;;;;;;5.58;3.50;;;;;;;27.48;31.29;96179.74;1637174;87;21133;-65
2022/07/20 08:15:40;;;;;;;4.62;2.55;;;;;;;27.56;30.52;96178.66;1644984;87;21493;-65
2022/07/20 08:18:07;;;;;;;4.87;2.90;;;;;;;27.64;30.43;96180.27;1637824;87;21050;-65
2022/07/20 08:20:34;;;;;;;6.50;3.50;;;;;;;27.77;30.86;96179.72;1637753;88;21517;-65
2022/07/20 08:23:01;;;;;;;5.47;3.47;;;;;;;27.88;29.48;96166.69;1644660;87;21129;-65
2022/07/20 08:25:28;;;;;;;5.42;3.08;;;;;;;27.93;29.44;96170.41;1637481;88;21539;-65
2022/07/20 08:27:55;;;;;;;4.35;3.00;;;;;;;28.09;30.25;96174.97;1637812;87;21094;-65
2022/07/20 08:30:21;;;;;;;6.92;3.12;;;;;;;28.23;29.76;96168.46;1645029;87;21018;-65
2022/07/20 08:32:48;;;;;;;6.80;2.72;;;;;;;28.34;29.62;96165.73;1637922;87;21000;-64
2022/07/20 08:35:15;;;;;;;3.67;2.92;;;;;;;28.44;29.64;96166.75;1637485;88;21090;-64
2022/07/20 08:37:41;;;;;;;3.83;2.85;;;;;;;28.55;29.36;96178.58;1645034;87;21095;-65
2022/07/20 08:40:09;;;;;;;4.75;3.10;;;;;;;28.52;28.75;96175.63;1637714;88;21019;-65
2022/07/20 08:42:37;;;;;;;4.35;2.80;;;;;;;28.68;29.51;96169.83;1637343;87;21086;-65
2022/07/20 08:45:04;;;;;;;3.08;2.83;;;;;;;28.88;28.88;96176.34;1639091;87;21058;-64
2022/07/20 08:47:35;;;;;;;4.37;2.95;;;;;;;28.88;28.40;96164.12;1637936;87;21020;-65
2022/07/20 08:50:02;;;;;;;3.77;2.90;;;;;;;28.84;27.73;96162.63;1637854;87;21083;-65
2022/07/20 08:52:28;;;;;;;4.80;3.30;;;;;;;28.84;27.63;96172.13;1644709;87;21110;-65
2022/07/20 08:54:55;;;;;;;3.95;3.33;;;;;;;28.84;27.55;96167.56;1644997;87;21074;-65
2022/07/20 08:57:22;;;;;;;5.15;3.45;;;;;;;28.85;28.26;96160.27;1644963;87;21018;-65
2022/07/20 08:59:49;;;;;;;5.03;3.12;;;;;;;28.98;27.20;96164.19;1644995;87;21049;-65
2022/07/20 09:02:16;;;;;;;5.08;3.05;;;;;;;29.07;27.52;96165.67;1645016;87;21086;-65
2022/07/20 09:04:59;;;;;;;3.72;3.30;;;;;;;29.17;27.20;96160.84;1644852;87;21532;-65
2022/07/20 09:07:46;;;;;;;4.15;3.22;;;;;;;29.26;26.94;96162.80;1645110;87;21581;-65
2022/07/20 09:10:27;;;;;;;6.87;3.15;;;;;;;29.42;27.18;96158.27;1645025;86;21074;-65
2022/07/20 09:13:07;;;;;;;5.28;3.27;;;;;;;29.52;26.70;96153.77;1644582;87;21033;-65
2022/07/20 09:15:40;;;;;;;4.15;2.87;;;;;;;29.65;26.83;96154.93;1644992;87;21062;-65
2022/07/20 09:18:14;;;;;;;3.75;3.00;;;;;;;29.70;26.40;96155.43;1644878;87;20979;-65
2022/07/20 09:20:46;;;;;;;6.08;3.10;;;;;;;29.61;26.18;96149.38;1645040;87;21054;-65
2022/07/20 09:23:20;;;;;;;4.08;3.15;;;;;;;29.55;26.84;96148.06;1644869;87;21062;-65
2022/07/20 09:26:06;;;;;;;6.65;2.92;;;;;;;29.71;26.47;96141.71;1626497;87;21066;-65
2022/07/20 09:28:48;;;;;;;5.03;3.47;;;;;;;29.91;25.83;96144.06;1644891;87;21069;-65
2022/07/20 09:31:19;;;;;;;3.35;3.05;;;;;;;29.98;25.94;96141.14;1645077;87;21060;-65
2022/07/20 09:34:07;;;;;;;4.17;3.20;;;;;;;30.19;26.86;96138.91;1644995;87;21010;-65
2022/07/20 09:36:40;;;;;;;6.60;3.10;;;;;;;30.37;25.56;96142.73;1645028;87;21492;-65
2022/07/20 09:39:14;;;;;;;6.65;3.02;;;;;;;30.55;25.71;96137.50;1645036;87;21086;-65
2022/07/20 09:41:54;;;;;;;4.53;3.17;;;;;;;30.79;26.16;96142.59;1645209;87;21046;-65
2022/07/20 09:44:25;;;;;;;5.12;3.30;;;;;;;31.02;25.12;96143.72;1644860;87;21563;-65
2022/07/20 09:46:52;;;;;;;4.70;3.20;;;;;;;31.24;25.58;96130.34;1645016;87;21612;-65
2022/07/20 09:49:21;;;;;;;4.75;3.35;;;;;;;31.28;24.45;96137.23;1644669;87;21075;-65
2022/07/20 09:51:57;;;;;;;6.72;3.27;;;;;;;31.19;24.37;96131.27;1643018;87;21018;-65
2022/07/20 09:54:24;;;;;;;4.67;3.20;;;;;;;31.03;24.83;96140.02;1640038;87;21082;-65
2022/07/20 09:56:52;;;;;;;4.47;3.27;;;;;;;31.19;25.35;96128.03;1642934;87;21021;-65
2022/07/20 09:59:20;;;;;;;3.20;2.70;;;;;;;31.35;24.52;96126.59;1639761;87;21058;-65
2022/07/20 10:01:53;;;;;;;3.80;3.40;;;;;;;31.53;24.71;96122.70;1640107;87;20983;-65
2022/07/20 10:04:22;;;;;;;4.70;3.15;;;;;;;31.72;24.99;96126.75;1612516;89;21110;-65
2022/07/20 10:06:52;;;;;;;5.03;3.37;;;;;;;31.79;23.71;96113.39;1640061;87;21018;-65
2022/07/20 10:09:19;;;;;;;4.42;3.30;;;;;;;31.71;23.26;96116.00;1642881;87;21098;-65
2022/07/20 10:11:48;;;;;;;3.95;3.25;;;;;;;31.51;23.37;96126.07;1640206;87;21070;-65
2022/07/20 10:14:21;;;;;;;5.40;3.20;;;;;;;31.45;23.80;96127.52;1639706;87;21080;-65
2022/07/20 10:16:54;;;;;;;7.00;3.30;;;;;;;31.42;23.50;96123.18;1612638;89;21058;-65
2022/07/20 10:19:50;;;;;;;4.78;3.12;;;;;;;31.53;23.82;96120.83;1639885;87;21112;-65
2022/07/20 10:22:15;;;;;;;4.80;2.90;;;;;;;31.61;24.25;96114.65;1617534;87;21528;-65
2022/07/20 10:24:43;;;;;;;3.90;3.30;;;;;;;31.61;23.06;96118.23;1640158;87;21022;-65
2022/07/20 10:27:25;;;;;;;5.70;3.30;;;;;;;31.73;23.74;96109.39;1639965;87;21114;-65
2022/07/20 10:29:56;;;;;;;3.15;2.85;;;;;;;31.93;23.95;96110.20;1612545;89;21556;-65
2022/07/20 10:32:28;;;;;;;6.80;3.10;;;;;;;32.22;23.43;96106.03;1639991;87;21090;-65
2022/07/20 10:35:02;;;;;;;5.58;3.20;;;;;;;32.31;22.74;96105.66;1642691;87;21030;-65
2022/07/20 10:37:41;;;;;;;4.45;2.90;;;;;;;32.33;23.14;96104.49;1637318;87;21058;-65
2022/07/20 10:40:15;;;;;;;6.92;3.33;;;;;;;32.29;23.20;96099.48;1640088;87;21050;-65
2022/07/20 10:42:55;;;;;;;4.70;3.10;;;;;;;32.36;23.76;96095.14;1612499;89;21062;-65
2022/07/20 10:45:27;;;;;;;4.90;2.92;;;;;;;32.47;23.28;96097.66;1631751;87;21063;-65
2022/07/20 10:48:12;;;;;;;;;;;;;;;32.39;23.25;96096.70;1614897;89;21094;-65
2022/07/20 10:50:41;;;;;;;5.45;3.10;;;;;;;32.44;23.56;96093.87;1639792;87;20119;-65
2022/07/20 10:53:20;;;;;;;3.80;2.60;;;;;;;32.42;22.92;96092.30;1637943;86;21102;-65
2022/07/20 10:55:53;;;;;;;4.92;3.12;;;;;;;32.43;22.57;96092.16;1644819;87;21065;-65
2022/07/20 10:58:25;;;;;;;4.05;2.40;;;;;;;32.38;22.85;96094.45;1637692;87;21537;-65
2022/07/20 11:00:58;;;;;;;;;;;;;;;32.51;22.50;96084.09;1639710;87;21055;-65
2022/07/20 11:03:30;;;;;;;;;;;;;;;32.61;22.46;96081.80;1646479;87;20140;-65
2022/07/20 11:06:08;;;;;;;3.75;2.70;;;;;;;32.84;22.89;96075.42;1639507;87;20144;-65
2022/07/20 11:08:38;;;;;;;5.65;3.05;;;;;;;32.66;22.29;96065.80;1637789;87;21038;-65
2022/07/20 11:11:07;;;;;;;3.98;3.00;;;;;;;32.49;22.96;96073.81;1637753;87;21408;-65
2022/07/20 11:13:34;;;;;;;5.83;3.02;;;;;;;32.65;23.83;96070.41;1644789;87;21010;-65
2022/07/20 11:16:02;;;;;;;4.00;2.90;;;;;;;33.04;23.18;96062.47;1637429;87;21126;-65
2022/07/20 11:18:32;;;;;;;5.12;3.17;;;;;;;33.29;22.56;96070.39;1637476;88;20987;-65
2022/07/20 11:21:11;;;;;;;3.72;3.00;;;;;;;33.26;22.10;96075.67;1644905;87;21519;-65
2022/07/20 11:23:45;;;;;;;4.15;3.05;;;;;;;33.24;22.08;96069.52;1637898;87;21019;-65
2022/07/20 11:26:15;;;;;;;4.05;2.65;;;;;;;33.44;22.15;96074.80;1637676;87;21062;-65
2022/07/20 11:28:49;;;;;;;3.35;2.67;;;;;;;33.56;21.94;96068.95;1644792;87;21030;-65
2022/07/20 11:31:23;;;;;;;4.08;2.75;;;;;;;33.72;21.95;96066.86;1637554;88;21535;-65
2022/07/20 11:33:52;;;;;;;3.27;2.62;;;;;;;34.00;21.88;96065.33;1637811;88;21493;-65
2022/07/20 11:36:31;;;;;;;3.80;2.62;;;;;;;33.98;21.86;96059.16;1645181;87;21074;-65
2022/07/20 11:39:01;;;;;;;3.62;2.67;;;;;;;34.04;21.15;96059.34;1637612;87;21517;-65
2022/07/20 11:41:33;;;;;;;6.83;2.83;;;;;;;34.14;21.12;96064.73;1637809;88;21031;-65
2022/07/20 11:44:01;;;;;;;4.15;2.40;;;;;;;34.18;21.06;96063.92;1610259;89;21019;-65